createdAt,value
2022-11-29T00:00:26.652Z,1.96
2022-11-29T00:05:53.690Z,1.92
2022-11-29T00:11:06.390Z,1.89
2022-11-29T00:16:14.847Z,1.88
2022-11-29T00:21:21.766Z,1.85
2022-11-29T00:26:28.794Z,1.85
2022-11-29T00:31:36.345Z,1.85
2022-11-29T00:36:43.231Z,1.85
2022-11-29T00:41:50.577Z,1.84
2022-11-29T00:46:57.540Z,1.83
2022-11-29T00:52:04.606Z,1.80
2022-11-29T00:57:11.534Z,1.78
2022-11-29T01:02:18.598Z,1.76
2022-11-29T01:07:25.713Z,1.73
2022-11-29T01:12:32.523Z,1.71
2022-11-29T01:17:40.274Z,1.70
2022-11-29T01:22:47.062Z,1.67
2022-11-29T01:27:53.944Z,1.63
2022-11-29T01:33:01.058Z,1.62
2022-11-29T01:38:07.802Z,1.63
2022-11-29T01:43:19.732Z,1.61
2022-11-29T01:48:28.588Z,1.61
2022-11-29T01:53:35.890Z,1.64
2022-11-29T01:58:43.596Z,1.63
2022-11-29T02:03:50.841Z,1.64
2022-11-29T02:08:58.051Z,1.65
2022-11-29T02:14:23.605Z,1.64
2022-11-29T02:20:05.697Z,1.65
2022-11-29T02:25:33.841Z,1.65
2022-11-29T02:30:59.778Z,1.67
2022-11-29T02:36:31.523Z,1.65
2022-11-29T02:42:00.677Z,1.66
2022-11-29T02:47:22.046Z,1.67
2022-11-29T02:52:37.411Z,1.68
2022-11-29T02:57:51.752Z,1.69
2022-11-29T03:03:07.211Z,1.73
2022-11-29T03:08:23.596Z,1.75
2022-11-29T03:13:39.163Z,1.78
2022-11-29T03:18:56.039Z,1.80
2022-11-29T03:24:10.687Z,1.83
2022-11-29T03:29:27.989Z,1.83
2022-11-29T03:34:55.777Z,1.84
2022-11-29T03:40:08.158Z,1.84
2022-11-29T03:45:23.959Z,1.85
2022-11-29T03:50:38.141Z,1.86
2022-11-29T03:55:54.578Z,1.88
2022-11-29T04:01:36.670Z,1.91
2022-11-29T04:06:56.613Z,1.93
2022-11-29T04:12:30.017Z,1.93
2022-11-29T04:17:51.825Z,1.91
2022-11-29T04:23:33.824Z,1.92
2022-11-29T04:29:10.615Z,1.93
2022-11-29T04:35:08.309Z,1.97
2022-11-29T04:40:32.776Z,2.00
2022-11-29T04:45:54.995Z,2.01
2022-11-29T04:51:04.820Z,2.01
2022-11-29T04:56:22.444Z,2.02
2022-11-29T05:01:39.974Z,2.03
2022-11-29T05:06:59.462Z,2.03
2022-11-29T05:12:16.841Z,2.02
2022-11-29T05:17:40.814Z,2.00
2022-11-29T05:23:03.763Z,2.00
2022-11-29T05:28:17.360Z,2.00
2022-11-29T05:33:38.883Z,1.98
2022-11-29T05:39:01.941Z,1.97
2022-11-29T05:44:13.936Z,1.98
2022-11-29T05:49:30.084Z,2.00
2022-11-29T05:54:44.714Z,2.02
2022-11-29T05:59:52.857Z,2.05
2022-11-29T06:05:08.542Z,2.06
2022-11-29T06:10:17.895Z,2.09
2022-11-29T06:15:50.023Z,2.12
2022-11-29T06:21:12.661Z,2.15
2022-11-29T06:26:39.347Z,2.20
2022-11-29T06:31:51.269Z,2.22
2022-11-29T06:37:05.372Z,2.25
2022-11-29T06:42:12.159Z,2.28
2022-11-29T06:47:27.739Z,2.30
2022-11-29T06:52:45.446Z,2.33
2022-11-29T06:58:04.763Z,2.37
2022-11-29T07:03:38.974Z,2.40
2022-11-29T07:08:46.667Z,2.45
2022-11-29T07:13:54.411Z,2.51
2022-11-29T07:19:13.430Z,2.56
2022-11-29T07:24:34.876Z,2.60
2022-11-29T07:29:51.044Z,2.63
2022-11-29T07:35:09.440Z,2.67
2022-11-29T07:40:21.049Z,2.73
2022-11-29T07:45:31.897Z,2.80
2022-11-29T07:50:40.425Z,2.86
2022-11-29T07:55:48.526Z,2.91
2022-11-29T08:00:56.029Z,3.00
2022-11-29T08:06:03.024Z,3.08
2022-11-29T08:11:15.558Z,3.11
2022-11-29T08:16:22.728Z,3.21
2022-11-29T08:21:29.642Z,3.30
2022-11-29T08:26:36.420Z,3.39
2022-11-29T08:31:43.409Z,3.48
2022-11-29T08:36:50.554Z,3.56
2022-11-29T08:41:57.273Z,3.57
2022-11-29T08:47:22.362Z,3.63
2022-11-29T08:52:47.424Z,3.73
2022-11-29T08:58:02.180Z,3.81
2022-11-29T09:03:27.572Z,3.87
2022-11-29T09:08:34.474Z,3.90
2022-11-29T09:13:41.779Z,3.96
2022-11-29T09:18:52.164Z,4.02
2022-11-29T09:24:01.580Z,4.08
2022-11-29T09:29:09.280Z,4.15
2022-11-29T09:34:18.560Z,4.22
2022-11-29T09:39:26.312Z,4.28
2022-11-29T09:44:47.489Z,4.35
2022-11-29T09:50:03.183Z,4.40
2022-11-29T09:55:28.811Z,4.43
2022-11-29T10:00:44.002Z,4.51
2022-11-29T10:05:55.279Z,4.56
2022-11-29T10:11:19.696Z,4.53
2022-11-29T10:16:35.085Z,4.52
2022-11-29T10:21:46.693Z,4.55
2022-11-29T10:26:54.375Z,4.60
2022-11-29T10:32:10.056Z,4.63
2022-11-29T10:37:21.100Z,4.71
2022-11-29T10:42:47.850Z,4.85
2022-11-29T10:47:57.580Z,4.95
2022-11-29T10:53:09.034Z,5.07
2022-11-29T10:58:23.293Z,5.16
2022-11-29T11:03:39.973Z,5.25
2022-11-29T11:08:49.766Z,5.31
2022-11-29T11:14:03.790Z,5.31
2022-11-29T11:19:29.304Z,5.32
2022-11-29T11:24:41.120Z,5.41
2022-11-29T11:29:48.183Z,5.46
2022-11-29T11:34:57.092Z,5.52
2022-11-29T11:40:28.978Z,5.57
2022-11-29T11:45:35.418Z,5.60
2022-11-29T11:50:46.318Z,5.61
2022-11-29T11:56:02.120Z,5.66
2022-11-29T12:01:25.207Z,5.71
2022-11-29T12:06:43.286Z,5.72
2022-11-29T12:12:00.379Z,5.72
2022-11-29T12:17:19.937Z,5.78
2022-11-29T12:22:34.920Z,5.84
2022-11-29T12:27:41.786Z,5.88
2022-11-29T12:33:02.899Z,5.92
2022-11-29T12:38:22.697Z,6.00
2022-11-29T12:43:38.840Z,6.09
2022-11-29T12:48:55.764Z,6.17
2022-11-29T12:54:34.039Z,6.30
2022-11-29T13:00:00.823Z,6.42
2022-11-29T13:05:20.463Z,6.46
2022-11-29T13:10:44.400Z,6.42
2022-11-29T13:16:02.342Z,6.37
2022-11-29T13:21:15.441Z,6.32
2022-11-29T13:26:26.489Z,6.30
2022-11-29T13:31:34.916Z,6.26
2022-11-29T13:36:53.195Z,6.17
2022-11-29T13:42:11.612Z,6.10
2022-11-29T13:47:20.468Z,6.06
2022-11-29T13:52:38.824Z,5.98
2022-11-29T13:58:15.456Z,5.89
2022-11-29T14:03:35.035Z,5.74
2022-11-29T14:09:17.175Z,5.63
2022-11-29T14:14:21.504Z,5.52
2022-11-29T14:19:33.784Z,5.44
2022-11-29T14:24:56.537Z,5.32
2022-11-29T14:30:04.268Z,5.22
2022-11-29T14:35:18.262Z,5.11
2022-11-29T14:40:32.578Z,5.01
2022-11-29T14:45:39.593Z,4.96
2022-11-29T14:50:46.720Z,4.90
2022-11-29T14:56:13.473Z,4.84
2022-11-29T15:01:23.698Z,4.76
2022-11-29T15:06:36.934Z,4.72
2022-11-29T15:11:54.333Z,4.65
2022-11-29T15:17:23.214Z,4.60
2022-11-29T15:22:39.359Z,4.52
2022-11-29T15:27:57.415Z,4.45
2022-11-29T15:33:06.498Z,4.39
2022-11-29T15:38:20.481Z,4.35
2022-11-29T15:43:31.379Z,4.32
2022-11-29T15:48:38.161Z,4.28
2022-11-29T15:53:48.502Z,4.23
2022-11-29T15:59:02.460Z,4.21
2022-11-29T16:04:18.853Z,4.17
2022-11-29T16:09:35.902Z,4.13
2022-11-29T16:14:56.179Z,4.08
2022-11-29T16:20:25.737Z,4.05
2022-11-29T16:25:37.637Z,4.00
2022-11-29T16:30:43.441Z,3.95
2022-11-29T16:35:50.417Z,3.89
2022-11-29T16:41:23.125Z,3.83
2022-11-29T16:46:38.312Z,3.78
2022-11-29T16:51:49.162Z,3.75
2022-11-29T16:56:58.034Z,3.71
2022-11-29T17:02:07.422Z,3.66
2022-11-29T17:07:23.837Z,3.64
2022-11-29T17:12:31.272Z,3.63
2022-11-29T17:17:38.366Z,3.60
2022-11-29T17:22:47.950Z,3.54
2022-11-29T17:27:54.951Z,3.50
2022-11-29T17:33:11.779Z,3.42
2022-11-29T17:38:30.031Z,3.32
2022-11-29T17:43:45.684Z,3.20
2022-11-29T17:49:02.573Z,3.12
2022-11-29T17:54:26.938Z,3.06
2022-11-29T17:59:52.659Z,2.98
2022-11-29T18:05:04.198Z,2.90
2022-11-29T18:10:12.931Z,2.80
2022-11-29T18:15:26.264Z,2.70
2022-11-29T18:20:34.572Z,2.64
2022-11-29T18:26:01.232Z,2.62
2022-11-29T18:31:17.713Z,2.61
2022-11-29T18:36:43.148Z,2.57
2022-11-29T18:41:58.458Z,2.52
2022-11-29T18:47:16.016Z,2.49
2022-11-29T18:52:23.152Z,2.44
2022-11-29T18:57:30.289Z,2.40
2022-11-29T19:02:37.119Z,2.34
2022-11-29T19:07:46.843Z,2.25
2022-11-29T19:12:54.975Z,2.15
2022-11-29T19:18:02.126Z,2.07
2022-11-29T19:23:13.962Z,1.97
2022-11-29T19:28:22.834Z,1.84
2022-11-29T19:33:29.680Z,1.67
2022-11-29T19:38:39.146Z,1.50
2022-11-29T19:43:47.998Z,1.33
2022-11-29T19:48:57.355Z,1.21
2022-11-29T19:54:06.904Z,1.03
2022-11-29T19:59:14.307Z,0.90
2022-11-29T20:04:21.550Z,0.79
2022-11-29T20:09:29.266Z,0.69
2022-11-29T20:14:36.071Z,0.61
2022-11-29T20:19:43.025Z,0.51
2022-11-29T20:24:50.623Z,0.43
2022-11-29T20:29:57.378Z,0.37
2022-11-29T20:35:06.175Z,0.30
2022-11-29T20:40:18.872Z,0.24
2022-11-29T20:45:27.242Z,0.19
2022-11-29T20:50:35.054Z,0.12
2022-11-29T20:55:47.767Z,0.06
2022-11-29T21:00:55.753Z,-0.03
2022-11-29T21:06:05.043Z,-0.10
2022-11-29T21:11:12.974Z,-0.16
2022-11-29T21:16:27.677Z,-0.22
2022-11-29T21:21:40.887Z,-0.28
2022-11-29T21:26:53.106Z,-0.36
2022-11-29T21:32:02.159Z,-0.42
2022-11-29T21:37:11.635Z,-0.48
2022-11-29T21:42:18.763Z,-0.52
2022-11-29T21:47:26.181Z,-0.56
2022-11-29T21:52:32.999Z,-0.58
2022-11-29T21:57:40.186Z,-0.61
2022-11-29T22:02:46.932Z,-0.65
2022-11-29T22:07:57.933Z,-0.71
2022-11-29T22:13:04.801Z,-0.74
2022-11-29T22:18:12.962Z,-0.77
2022-11-29T22:23:19.975Z,-0.78
2022-11-29T22:28:26.902Z,-0.80
2022-11-29T22:33:34.833Z,-0.82
2022-11-29T22:38:42.691Z,-0.83
2022-11-29T22:43:49.695Z,-0.84
2022-11-29T22:49:00.466Z,-0.84
2022-11-29T22:54:10.590Z,-0.85
2022-11-29T22:59:17.466Z,-0.87
2022-11-29T23:04:24.474Z,-0.86
2022-11-29T23:09:31.428Z,-0.85
2022-11-29T23:14:38.226Z,-0.86
2022-11-29T23:19:45.096Z,-0.87
2022-11-29T23:24:51.869Z,-0.88
2022-11-29T23:29:58.767Z,-0.89
2022-11-29T23:35:06.139Z,-0.90
2022-11-29T23:40:14.786Z,-0.92
2022-11-29T23:45:21.866Z,-0.95
2022-11-29T23:50:28.628Z,-0.96
2022-11-29T23:55:35.607Z,-0.98
